createdAt,value
2024-05-09T00:00:51.237Z,11.63
2024-05-09T00:03:21.717Z,12.27
2024-05-09T00:05:51.678Z,11.70
2024-05-09T00:08:24.398Z,12.23
2024-05-09T00:10:54.657Z,12.70
2024-05-09T00:13:24.731Z,12.00
2024-05-09T00:15:54.804Z,12.67
2024-05-09T00:18:24.969Z,13.33
2024-05-09T00:20:55.212Z,11.30
2024-05-09T00:23:27.851Z,12.27
2024-05-09T00:25:57.927Z,12.00
2024-05-09T00:28:28.339Z,12.30
2024-05-09T00:30:58.364Z,12.37
2024-05-09T00:33:28.709Z,12.67
2024-05-09T00:35:58.748Z,13.27
2024-05-09T00:38:31.544Z,13.07
2024-05-09T00:41:01.710Z,13.60
2024-05-09T00:43:32.707Z,14.30
2024-05-09T00:46:02.996Z,13.70
2024-05-09T00:48:33.342Z,14.97
2024-05-09T00:51:04.607Z,15.07
2024-05-09T00:53:37.785Z,15.30
2024-05-09T00:56:09.705Z,14.43
2024-05-09T00:58:40.569Z,14.53
2024-05-09T01:01:11.364Z,16.97
2024-05-09T01:03:41.586Z,15.23
2024-05-09T01:06:11.661Z,15.73
2024-05-09T01:08:44.475Z,18.13
2024-05-09T01:11:16.374Z,16.83
2024-05-09T01:13:46.556Z,16.60
2024-05-09T01:16:16.925Z,16.77
2024-05-09T01:18:47.104Z,18.50
2024-05-09T01:21:17.265Z,15.20
2024-05-09T01:23:49.937Z,17.33
2024-05-09T01:26:20.062Z,19.00
2024-05-09T01:28:50.158Z,19.73
2024-05-09T01:31:20.293Z,19.23
2024-05-09T01:33:50.429Z,21.07
2024-05-09T01:36:21.542Z,22.07
2024-05-09T01:38:54.135Z,20.43
2024-05-09T01:41:24.228Z,21.77
2024-05-09T01:43:54.287Z,25.13
2024-05-09T01:46:24.352Z,22.03
2024-05-09T01:48:54.545Z,23.87
2024-05-09T01:51:24.935Z,24.47
2024-05-09T01:53:59.509Z,25.57
2024-05-09T01:56:29.547Z,26.80
2024-05-09T01:58:59.901Z,24.80
2024-05-09T02:01:30.088Z,23.97
2024-05-09T02:04:20.408Z,22.87
2024-05-09T02:06:50.515Z,23.17
2024-05-09T02:09:23.131Z,24.40
2024-05-09T02:11:53.222Z,22.60
2024-05-09T02:14:23.359Z,24.57
2024-05-09T02:16:53.484Z,25.63
2024-05-09T02:19:23.721Z,22.50
2024-05-09T02:21:53.773Z,24.13
2024-05-09T02:24:26.364Z,26.37
2024-05-09T02:26:56.404Z,27.87
2024-05-09T02:29:26.618Z,26.60
2024-05-09T02:31:56.848Z,24.30
2024-05-09T02:34:27.101Z,26.90
2024-05-09T02:36:56.223Z,24.40
2024-05-09T02:39:29.069Z,26.57
2024-05-09T02:41:56.414Z,27.03
2024-05-09T02:44:26.559Z,28.70
2024-05-09T02:46:54.082Z,26.87
2024-05-09T02:49:24.166Z,32.17
2024-05-09T02:51:51.659Z,30.20
2024-05-09T02:54:21.713Z,32.20
2024-05-09T02:56:51.688Z,29.90
2024-05-09T02:59:21.901Z,30.90
2024-05-09T03:01:49.520Z,32.43
2024-05-09T03:04:19.650Z,31.97
2024-05-09T03:06:47.117Z,32.37
2024-05-09T03:09:17.259Z,33.10
2024-05-09T03:11:45.992Z,33.43
2024-05-09T03:14:21.613Z,37.47
2024-05-09T03:16:49.183Z,41.40
2024-05-09T03:19:19.351Z,38.37
2024-05-09T03:21:46.861Z,38.40
2024-05-09T03:24:16.847Z,40.57
2024-05-09T03:26:44.198Z,33.60
2024-05-09T03:29:14.229Z,31.60
2024-05-09T03:31:44.365Z,29.20
2024-05-09T03:34:14.517Z,35.23
2024-05-09T03:36:43.052Z,31.07
2024-05-09T03:39:13.598Z,35.57
2024-05-09T03:41:43.636Z,34.77
2024-05-09T03:44:13.674Z,39.67
2024-05-09T03:46:43.903Z,35.43
2024-05-09T03:49:14.208Z,33.00
2024-05-09T03:51:41.907Z,32.80
2024-05-09T03:54:12.654Z,35.17
2024-05-09T03:56:40.181Z,33.03
2024-05-09T03:59:10.994Z,33.70
2024-05-09T04:01:38.505Z,34.60
2024-05-09T04:04:12.001Z,33.00
2024-05-09T04:06:39.358Z,35.27
2024-05-09T04:09:09.625Z,34.00
2024-05-09T04:11:37.128Z,34.20
2024-05-09T04:14:07.206Z,30.00
2024-05-09T04:16:34.643Z,30.97
2024-05-09T04:19:04.858Z,35.27
2024-05-09T04:21:34.878Z,39.17
2024-05-09T04:24:04.897Z,35.37
2024-05-09T04:26:32.413Z,36.07
2024-05-09T04:29:02.544Z,33.23
2024-05-09T04:31:30.289Z,32.20
2024-05-09T04:34:00.397Z,37.23
2024-05-09T04:36:27.926Z,34.57
2024-05-09T04:39:00.594Z,34.50
2024-05-09T04:41:28.129Z,32.90
2024-05-09T04:43:58.296Z,29.93
2024-05-09T04:46:25.747Z,32.67
2024-05-09T04:48:56.202Z,31.93
2024-05-09T04:51:23.635Z,33.13
2024-05-09T04:53:53.752Z,31.87
2024-05-09T04:56:23.794Z,30.20
2024-05-09T04:58:54.032Z,29.17
2024-05-09T05:01:22.343Z,27.57
2024-05-09T05:03:53.016Z,27.53
2024-05-09T05:06:21.092Z,27.83
2024-05-09T05:08:51.084Z,24.40
2024-05-09T05:11:18.684Z,27.50
2024-05-09T05:13:51.408Z,23.53
2024-05-09T05:16:21.554Z,23.67
2024-05-09T05:18:49.185Z,23.23
2024-05-09T05:21:19.473Z,21.80
2024-05-09T05:23:46.970Z,20.47
2024-05-09T05:26:20.302Z,20.37
2024-05-09T05:28:51.072Z,19.20
2024-05-09T05:31:21.246Z,18.97
2024-05-09T05:33:49.205Z,18.20
2024-05-09T05:36:19.302Z,18.73
2024-05-09T05:38:46.722Z,17.77
2024-05-09T05:41:16.857Z,18.73
2024-05-09T05:43:44.389Z,17.77
2024-05-09T05:46:17.125Z,20.33
2024-05-09T05:48:44.774Z,17.23
2024-05-09T05:51:15.118Z,17.63
2024-05-09T05:53:42.813Z,17.40
2024-05-09T05:56:12.959Z,17.87
2024-05-09T05:58:41.608Z,18.03
2024-05-09T06:01:11.836Z,18.43
2024-05-09T06:03:42.026Z,18.10
2024-05-09T06:06:12.210Z,17.80
2024-05-09T06:08:39.837Z,17.73
2024-05-09T06:11:10.344Z,17.83
2024-05-09T06:13:42.121Z,17.00
2024-05-09T06:16:12.129Z,17.93
2024-05-09T06:18:42.346Z,17.30
2024-05-09T06:21:12.619Z,17.03
2024-05-09T06:23:46.092Z,17.40
2024-05-09T06:26:16.189Z,18.43
2024-05-09T06:28:43.980Z,18.07
2024-05-09T06:31:14.401Z,17.93
2024-05-09T06:33:44.541Z,17.13
2024-05-09T06:36:16.181Z,16.47
2024-05-09T06:38:43.913Z,16.40
2024-05-09T06:41:14.098Z,16.47
2024-05-09T06:43:41.978Z,16.30
2024-05-09T06:46:12.497Z,15.57
2024-05-09T06:48:40.117Z,15.63
2024-05-09T06:51:13.223Z,15.90
2024-05-09T06:53:40.891Z,15.77
2024-05-09T06:56:11.160Z,15.80
2024-05-09T06:58:38.603Z,15.50
2024-05-09T07:01:09.139Z,15.57
2024-05-09T07:03:36.893Z,15.33
2024-05-09T07:06:07.295Z,15.23
2024-05-09T07:08:37.493Z,14.37
2024-05-09T07:11:07.973Z,14.60
2024-05-09T07:13:35.377Z,13.93
2024-05-09T07:16:05.688Z,13.70
2024-05-09T07:18:33.219Z,13.63
2024-05-09T07:21:03.374Z,13.07
2024-05-09T07:23:30.814Z,13.27
2024-05-09T07:26:03.634Z,12.57
2024-05-09T07:28:31.124Z,12.60
2024-05-09T07:31:01.179Z,12.67
2024-05-09T07:33:28.857Z,12.03
2024-05-09T07:35:59.498Z,12.37
2024-05-09T07:38:26.958Z,12.30
2024-05-09T07:40:57.060Z,12.07
2024-05-09T07:43:28.022Z,11.33
2024-05-09T07:46:07.075Z,12.40
2024-05-09T07:53:52.163Z,11.07
2024-05-09T07:56:26.043Z,12.00
2024-05-09T07:58:56.601Z,10.50
2024-05-09T08:01:27.544Z,10.10
2024-05-09T08:03:58.207Z,10.17
2024-05-09T08:06:26.275Z,12.80
2024-05-09T08:08:57.853Z,10.67
2024-05-09T08:11:27.183Z,9.50
2024-05-09T08:13:59.867Z,9.53
2024-05-09T08:16:27.253Z,9.83
2024-05-09T08:18:57.387Z,9.43
2024-05-09T08:21:24.908Z,9.23
2024-05-09T08:23:54.897Z,8.90
2024-05-09T08:26:22.301Z,8.70
2024-05-09T08:28:52.276Z,8.70
2024-05-09T08:31:22.443Z,9.20
2024-05-09T08:33:53.008Z,9.07
2024-05-09T08:36:20.573Z,8.57
2024-05-09T08:38:50.609Z,8.67
2024-05-09T08:41:18.100Z,8.90
2024-05-09T08:43:49.578Z,8.50
2024-05-09T08:46:18.682Z,9.10
2024-05-09T08:48:53.564Z,9.57
2024-05-09T08:51:21.288Z,8.13
2024-05-09T08:53:51.463Z,7.60
2024-05-09T08:56:20.672Z,9.00
2024-05-09T08:58:52.319Z,7.38
2024-05-09T09:01:20.711Z,6.80
2024-05-09T09:03:55.700Z,7.63
2024-05-09T09:06:24.977Z,7.80
2024-05-09T09:08:55.854Z,7.20
2024-05-09T09:11:23.450Z,7.00
2024-05-09T09:13:53.563Z,6.75
2024-05-09T09:16:31.154Z,6.65
2024-05-09T09:19:04.195Z,5.55
2024-05-09T09:21:31.777Z,6.13
2024-05-09T09:24:01.976Z,8.18
2024-05-09T09:26:34.197Z,8.63
2024-05-09T09:29:01.884Z,5.57
2024-05-09T09:31:33.272Z,5.25
2024-05-09T09:34:08.939Z,5.38
2024-05-09T09:36:41.590Z,6.10
2024-05-09T09:39:10.461Z,6.55
2024-05-09T09:41:41.998Z,5.93
2024-05-09T09:44:09.867Z,6.90
2024-05-09T09:46:40.470Z,6.20
2024-05-09T09:49:10.675Z,6.13
2024-05-09T09:51:43.670Z,5.20
2024-05-09T09:54:13.220Z,5.72
2024-05-09T09:56:44.313Z,5.35
2024-05-09T09:59:13.541Z,5.63
2024-05-09T10:01:43.848Z,5.60
2024-05-09T10:04:16.066Z,5.40
2024-05-09T10:06:52.900Z,5.10
2024-05-09T10:09:20.928Z,7.00
2024-05-09T10:11:52.402Z,7.78
2024-05-09T10:14:22.205Z,7.00
2024-05-09T10:16:52.546Z,5.47
2024-05-09T10:19:28.710Z,7.53
2024-05-09T10:22:06.013Z,5.43
2024-05-09T10:24:48.893Z,6.20
2024-05-09T10:27:21.104Z,5.53
2024-05-09T10:29:55.265Z,5.47
2024-05-09T10:32:25.555Z,5.40
2024-05-09T10:35:09.433Z,4.40
2024-05-09T10:37:39.400Z,6.53
2024-05-09T10:40:14.015Z,7.07
2024-05-09T10:42:47.861Z,6.97
2024-05-09T10:45:16.728Z,5.05
2024-05-09T10:47:46.899Z,5.40
2024-05-09T10:50:25.040Z,4.10
2024-05-09T10:52:58.388Z,4.53
2024-05-09T10:55:25.896Z,6.45
2024-05-09T10:57:55.922Z,5.22
2024-05-09T11:00:30.248Z,6.15
2024-05-09T11:03:04.415Z,4.47
2024-05-09T11:05:35.821Z,5.00
2024-05-09T11:08:06.322Z,4.32
2024-05-09T11:10:34.649Z,4.05
2024-05-09T11:13:05.045Z,4.15
2024-05-09T11:15:39.179Z,3.40
2024-05-09T11:18:09.922Z,5.57
2024-05-09T11:20:40.088Z,3.35
2024-05-09T11:23:13.607Z,3.75
2024-05-09T11:25:40.952Z,3.53
2024-05-09T11:28:10.988Z,3.65
2024-05-09T11:30:38.502Z,5.47
2024-05-09T11:33:08.807Z,4.30
2024-05-09T11:35:36.172Z,3.05
2024-05-09T11:38:08.781Z,2.78
2024-05-09T11:40:37.192Z,3.90
2024-05-09T11:43:08.133Z,8.48
2024-05-09T11:45:35.642Z,3.10
2024-05-09T11:48:06.807Z,3.33
2024-05-09T11:50:35.978Z,2.80
2024-05-09T11:53:09.103Z,5.43
2024-05-09T11:55:36.674Z,5.63
2024-05-09T11:58:08.303Z,2.97
2024-05-09T12:00:37.582Z,4.32
2024-05-09T12:03:08.649Z,3.28
2024-05-09T12:05:36.161Z,4.15
2024-05-09T12:08:09.627Z,3.20
2024-05-09T12:10:37.512Z,2.50
2024-05-09T12:13:08.154Z,3.85
2024-05-09T12:15:39.657Z,5.80
2024-05-09T12:18:10.177Z,3.80
2024-05-09T12:20:39.728Z,2.60
2024-05-09T12:23:13.154Z,3.00
2024-05-09T12:25:40.726Z,6.30
2024-05-09T12:28:10.813Z,2.40
2024-05-09T12:30:40.540Z,2.83
2024-05-09T12:33:13.504Z,2.42
2024-05-09T12:35:44.212Z,2.40
2024-05-09T12:38:19.147Z,3.15
2024-05-09T12:40:46.660Z,4.45
2024-05-09T12:43:16.604Z,2.67
2024-05-09T12:45:44.021Z,2.97
2024-05-09T12:48:14.194Z,2.80
2024-05-09T12:50:42.232Z,2.50
2024-05-09T12:53:12.604Z,2.10
2024-05-09T12:55:48.964Z,2.33
2024-05-09T12:58:26.650Z,2.72
2024-05-09T13:00:54.240Z,6.35
2024-05-09T13:03:24.449Z,4.82
2024-05-09T13:05:52.334Z,2.35
2024-05-09T13:08:22.840Z,3.45
2024-05-09T13:10:52.920Z,2.45
2024-05-09T13:13:23.231Z,3.00
2024-05-09T13:15:50.772Z,2.28
2024-05-09T13:18:20.797Z,3.70
2024-05-09T13:20:48.193Z,4.70
2024-05-09T13:23:18.110Z,3.00
2024-05-09T13:25:46.117Z,2.58
2024-05-09T13:28:19.063Z,3.47
2024-05-09T13:30:46.695Z,2.70
2024-05-09T13:33:16.863Z,2.30
2024-05-09T13:35:48.752Z,2.40
2024-05-09T13:38:21.846Z,5.60
2024-05-09T13:40:50.424Z,4.88
2024-05-09T13:43:24.005Z,2.63
2024-05-09T13:45:52.283Z,3.17
2024-05-09T13:48:22.470Z,2.22
2024-05-09T13:50:49.938Z,3.53
2024-05-09T13:53:19.915Z,2.20
2024-05-09T13:55:47.498Z,3.67
2024-05-09T13:58:17.810Z,4.57
2024-05-09T14:00:49.225Z,2.80
2024-05-09T14:03:21.179Z,2.58
2024-05-09T14:05:50.537Z,4.68
2024-05-09T14:08:22.448Z,2.67
2024-05-09T14:10:50.970Z,2.85
2024-05-09T14:13:21.159Z,3.72
2024-05-09T14:15:51.514Z,2.40
2024-05-09T14:18:21.695Z,3.95
2024-05-09T14:20:49.032Z,3.33
2024-05-09T14:23:20.435Z,2.50
2024-05-09T14:25:51.772Z,2.50
2024-05-09T14:28:23.044Z,3.05
2024-05-09T14:30:53.413Z,3.42
2024-05-09T14:33:26.826Z,2.45
2024-05-09T14:35:54.637Z,3.58
2024-05-09T14:38:24.671Z,2.30
2024-05-09T14:40:52.154Z,4.07
2024-05-09T14:43:22.357Z,2.55
2024-05-09T14:45:53.381Z,3.08
2024-05-09T14:48:23.635Z,2.45
2024-05-09T14:50:51.087Z,4.40
2024-05-09T14:53:21.039Z,3.97
2024-05-09T14:55:49.678Z,5.78
2024-05-09T14:58:20.071Z,3.22
2024-05-09T15:00:50.389Z,3.38
2024-05-09T15:03:24.279Z,3.05
2024-05-09T15:05:52.339Z,2.25
2024-05-09T15:08:22.865Z,3.15
2024-05-09T15:10:50.834Z,2.70
2024-05-09T15:13:21.510Z,3.22
2024-05-09T15:15:49.830Z,4.30
2024-05-09T15:18:20.212Z,2.58
2024-05-09T15:20:50.402Z,2.10
2024-05-09T15:23:20.456Z,3.47
2024-05-09T15:25:48.056Z,3.13
2024-05-09T15:28:18.760Z,4.22
2024-05-09T15:30:47.525Z,3.92
2024-05-09T15:33:17.983Z,6.30
2024-05-09T15:35:46.775Z,3.38
2024-05-09T15:38:19.990Z,2.65
2024-05-09T15:40:47.527Z,2.85
2024-05-09T15:43:17.750Z,2.20
2024-05-09T15:45:45.533Z,2.60
2024-05-09T15:48:15.796Z,2.30
2024-05-09T15:50:43.538Z,2.85
2024-05-09T15:53:15.131Z,4.15
2024-05-09T15:55:47.754Z,2.60
2024-05-09T15:58:15.891Z,2.75
2024-05-09T16:00:48.679Z,3.10
2024-05-09T16:03:17.985Z,4.05
2024-05-09T16:05:48.416Z,2.67
2024-05-09T16:08:16.710Z,3.05
2024-05-09T16:10:49.692Z,4.68
2024-05-09T16:13:17.874Z,2.22
2024-05-09T16:15:48.258Z,2.97
2024-05-09T16:18:16.106Z,3.63
2024-05-09T16:20:49.256Z,3.00
2024-05-09T16:23:17.933Z,3.33
2024-05-09T16:25:51.536Z,2.47
2024-05-09T16:28:20.228Z,2.50
2024-05-09T16:30:51.083Z,2.72
2024-05-09T16:33:20.990Z,3.42
2024-05-09T16:35:51.181Z,2.33
2024-05-09T16:38:18.988Z,3.08
2024-05-09T16:40:52.302Z,2.63
2024-05-09T16:43:20.161Z,3.00
2024-05-09T16:45:50.351Z,3.00
2024-05-09T16:48:17.990Z,3.42
2024-05-09T16:50:47.962Z,2.42
2024-05-09T16:53:15.290Z,2.60
2024-05-09T16:55:45.200Z,2.88
2024-05-09T16:58:15.323Z,5.47
2024-05-09T17:00:45.531Z,4.30
2024-05-09T17:03:15.134Z,4.55
2024-05-09T17:05:47.444Z,2.75
2024-05-09T17:08:16.969Z,3.25
2024-05-09T17:10:49.468Z,2.55
2024-05-09T17:13:23.095Z,4.15
2024-05-09T17:15:53.445Z,4.13
2024-05-09T17:18:23.712Z,3.00
2024-05-09T17:20:52.429Z,4.10
2024-05-09T17:23:22.535Z,3.53
2024-05-09T17:25:52.706Z,4.70
2024-05-09T17:28:23.173Z,3.75
2024-05-09T17:30:53.208Z,3.72
2024-05-09T17:33:20.633Z,2.67
2024-05-09T17:35:51.922Z,3.17
2024-05-09T17:38:19.805Z,2.85
2024-05-09T17:40:50.078Z,2.80
2024-05-09T17:43:17.462Z,3.88
2024-05-09T17:45:50.236Z,5.03
2024-05-09T17:48:17.848Z,4.20
2024-05-09T17:50:47.868Z,3.65
2024-05-09T17:53:15.862Z,3.03
2024-05-09T17:55:46.052Z,3.67
2024-05-09T17:58:13.651Z,4.53
2024-05-09T18:00:44.055Z,3.40
2024-05-09T18:03:14.958Z,4.20
2024-05-09T18:05:45.623Z,3.42
2024-05-09T18:08:13.700Z,3.33
2024-05-09T18:10:45.387Z,4.25
2024-05-09T18:13:13.545Z,4.90
2024-05-09T18:15:45.101Z,4.63
2024-05-09T18:18:15.740Z,3.85
2024-05-09T18:20:46.521Z,5.60
2024-05-09T18:23:16.654Z,3.72
2024-05-09T18:25:48.459Z,4.18
2024-05-09T18:28:16.842Z,4.40
2024-05-09T18:30:47.915Z,4.32
2024-05-09T18:33:18.353Z,5.55
2024-05-09T18:35:48.823Z,4.25
2024-05-09T18:38:17.589Z,4.10
2024-05-09T18:40:49.381Z,4.55
2024-05-09T18:43:17.635Z,5.28
2024-05-09T18:45:48.301Z,4.20
2024-05-09T18:48:18.467Z,4.47
2024-05-09T18:50:48.592Z,4.70
2024-05-09T18:53:16.238Z,4.43
2024-05-09T18:55:46.248Z,3.88
2024-05-09T18:58:13.819Z,3.85
2024-05-09T19:00:46.642Z,3.90
2024-05-09T19:03:19.503Z,4.57
2024-05-09T19:05:49.936Z,6.00
2024-05-09T19:08:17.613Z,3.80
2024-05-09T19:10:48.017Z,4.15
2024-05-09T19:13:16.567Z,3.75
2024-05-09T19:15:46.869Z,3.93
2024-05-09T19:18:15.241Z,5.30
2024-05-09T19:20:48.431Z,3.70
2024-05-09T19:23:16.175Z,7.10
2024-05-09T19:25:46.126Z,5.13
2024-05-09T19:28:13.749Z,5.33
2024-05-09T19:30:43.780Z,6.37
2024-05-09T19:33:13.194Z,6.97
2024-05-09T19:35:44.400Z,5.47
2024-05-09T19:38:14.605Z,5.77
2024-05-09T19:40:44.842Z,4.77
2024-05-09T19:43:12.413Z,6.10
2024-05-09T19:45:43.977Z,5.70
2024-05-09T19:48:11.674Z,5.83
2024-05-09T19:50:44.310Z,4.03
2024-05-09T19:53:15.370Z,4.93
2024-05-09T19:55:45.767Z,4.87
2024-05-09T19:58:13.399Z,5.03
2024-05-09T20:00:44.734Z,8.03
2024-05-09T20:03:14.259Z,4.23
2024-05-09T20:05:46.190Z,4.73
2024-05-09T20:08:16.974Z,4.70
2024-05-09T20:10:47.176Z,4.80
2024-05-09T20:13:14.761Z,4.23
2024-05-09T20:15:45.044Z,4.73
2024-05-09T20:18:12.816Z,5.10
2024-05-09T20:20:44.877Z,5.70
2024-05-09T20:23:13.654Z,4.40
2024-05-09T20:25:46.616Z,5.10
2024-05-09T20:28:14.236Z,4.27
2024-05-09T20:30:44.493Z,5.80
2024-05-09T20:33:14.102Z,5.03
2024-05-09T20:35:44.292Z,5.47
2024-05-09T20:38:11.591Z,6.37
2024-05-09T20:40:41.623Z,4.93
2024-05-09T20:43:11.990Z,5.20
2024-05-09T20:45:44.784Z,6.13
2024-05-09T20:48:12.457Z,4.70
2024-05-09T20:50:43.759Z,5.43
2024-05-09T20:53:13.494Z,5.53
2024-05-09T20:55:45.480Z,4.73
2024-05-09T20:58:15.773Z,6.03
2024-05-09T21:00:46.707Z,6.53
2024-05-09T21:03:16.372Z,6.13
2024-05-09T21:05:48.546Z,9.27
2024-05-09T21:08:16.543Z,18.40
2024-05-09T21:10:46.832Z,21.00
2024-05-09T21:13:17.336Z,15.30
2024-05-09T21:15:47.652Z,12.37
2024-05-09T21:18:15.183Z,9.60
2024-05-09T21:20:45.550Z,8.30
2024-05-09T21:23:12.982Z,6.30
2024-05-09T21:25:43.098Z,7.70
2024-05-09T21:28:10.574Z,6.37
2024-05-09T21:30:43.621Z,7.07
2024-05-09T21:33:13.453Z,5.90
2024-05-09T21:35:45.330Z,5.67
2024-05-09T21:38:14.552Z,6.07
2024-05-09T21:40:45.728Z,6.87
2024-05-09T21:43:13.348Z,7.13
2024-05-09T21:45:46.395Z,6.53
2024-05-09T21:48:14.098Z,8.27
2024-05-09T21:50:44.483Z,8.50
2024-05-09T21:53:12.753Z,7.77
2024-05-09T21:55:43.999Z,6.77
2024-05-09T21:58:12.352Z,8.37
2024-05-09T22:00:48.223Z,9.17
2024-05-09T22:03:15.815Z,8.57
2024-05-09T22:05:45.977Z,8.97
2024-05-09T22:08:13.749Z,7.93
2024-05-09T22:10:43.956Z,8.37
2024-05-09T22:13:11.495Z,8.20
2024-05-09T22:15:42.831Z,8.20
2024-05-09T22:18:13.407Z,8.30
2024-05-09T22:20:46.407Z,12.03
2024-05-09T22:23:15.155Z,12.97
2024-05-09T22:25:45.375Z,11.87
2024-05-09T22:28:14.567Z,11.20
2024-05-09T22:30:46.325Z,7.83
2024-05-09T22:33:17.112Z,7.83
2024-05-09T22:35:47.612Z,7.67
2024-05-09T22:38:15.057Z,9.10
2024-05-09T22:40:48.575Z,9.60
2024-05-09T22:43:19.521Z,11.10
2024-05-09T22:45:50.148Z,10.50
2024-05-09T22:48:20.818Z,10.17
2024-05-09T22:50:50.976Z,9.63
2024-05-09T22:53:18.530Z,9.80
2024-05-09T22:55:48.731Z,8.57
2024-05-09T22:58:16.462Z,9.23
2024-05-09T23:00:46.664Z,8.60
2024-05-09T23:03:15.930Z,9.03
2024-05-09T23:05:49.271Z,8.70
2024-05-09T23:08:17.166Z,8.20
2024-05-09T23:10:47.636Z,11.20
2024-05-09T23:13:15.235Z,8.40
2024-05-09T23:15:45.530Z,8.80
2024-05-09T23:18:13.117Z,8.10
2024-05-09T23:20:43.242Z,8.70
2024-05-09T23:23:13.318Z,8.40
2024-05-09T23:25:43.744Z,8.27
2024-05-09T23:28:11.628Z,8.27
2024-05-09T23:30:42.591Z,8.50
2024-05-09T23:33:11.916Z,8.90
2024-05-09T23:35:45.047Z,8.70
2024-05-09T23:38:15.158Z,9.13
2024-05-09T23:40:45.373Z,8.80
2024-05-09T23:43:14.237Z,9.13
2024-05-09T23:45:44.563Z,8.57
2024-05-09T23:48:12.124Z,8.63
2024-05-09T23:50:42.237Z,8.37
2024-05-09T23:53:10.727Z,8.37
2024-05-09T23:55:43.922Z,8.73
2024-05-09T23:58:11.682Z,8.70
